Time;durP1;ratioP1;P1;durP2;ratioP2;P2;SDS_P1;SDS_P2;PMS_P1;PMS_P2;Temp;Humidity;BMP_temperature;BMP_pressure;BME280_temperature;BME280_humidity;BME280_pressure;Samples;Min_cycle;Max_cycle;Signal;HPM_P1;HPM_P2
2022/08/15 00:00:56;;;;;;;1.77;0.83;;;24.50;99.90;;;;;;5035946;28;20824;-71
2022/08/15 00:03:27;;;;;;;0.97;0.83;;;24.50;99.90;;;;;;5035458;28;20456;-72
2022/08/15 00:05:56;;;;;;;0.80;0.80;;;24.50;99.90;;;;;;5037197;28;20491;-72
2022/08/15 00:08:24;;;;;;;1.93;1.30;;;24.50;99.90;;;;;;5037039;28;20546;-72
2022/08/15 00:10:51;;;;;;;1.10;0.83;;;24.60;99.90;;;;;;5037078;28;20476;-71
2022/08/15 00:13:21;;;;;;;0.90;0.80;;;24.70;99.90;;;;;;5035059;28;20502;-71
2022/08/15 00:15:50;;;;;;;0.90;0.83;;;24.60;99.90;;;;;;5036707;28;20440;-72
2022/08/15 00:18:18;;;;;;;1.10;1.00;;;24.50;99.90;;;;;;5035230;28;20814;-71
2022/08/15 00:20:45;;;;;;;0.97;0.87;;;24.50;99.90;;;;;;5037289;28;20798;-71
2022/08/15 00:23:15;;;;;;;0.93;0.80;;;24.40;99.90;;;;;;5034107;28;20492;-72
2022/08/15 00:25:47;;;;;;;1.03;0.80;;;24.20;1.00;;;;;;5035810;28;20449;-71
2022/08/15 00:28:14;;;;;;;0.90;0.80;;;24.10;1.00;;;;;;5036084;28;20520;-72
2022/08/15 00:30:44;;;;;;;1.00;0.83;;;24.00;1.00;;;;;;5035919;28;20487;-72
2022/08/15 00:33:15;;;;;;;1.47;0.90;;;24.00;1.00;;;;;;5033534;28;20915;-72
2022/08/15 00:35:44;;;;;;;1.17;1.00;;;24.20;1.00;;;;;;5035928;28;20444;-71
2022/08/15 00:38:16;;;;;;;1.17;0.97;;;24.30;1.00;;;;;;5033264;28;20514;-72
2022/08/15 00:43:34;;;;;;;1.20;1.00;;;23.70;1.00;;;;;;5033086;28;20579;-71
2022/08/15 00:46:02;;;;;;;1.00;0.80;;;23.60;1.00;;;;;;5036189;28;20506;-71
2022/08/15 00:51:23;;;;;;;1.20;1.00;;;23.50;1.00;;;;;;5021176;28;20490;-71
2022/08/15 00:53:56;;;;;;;1.00;0.80;;;23.50;1.00;;;;;;5035121;28;20526;-72
2022/08/15 00:56:27;;;;;;;1.40;1.00;;;23.50;1.00;;;;;;5036534;28;20444;-72
2022/08/15 00:58:55;;;;;;;1.63;1.00;;;23.50;1.00;;;;;;5034403;28;20506;-72
2022/08/15 01:01:22;;;;;;;1.70;0.90;;;23.50;1.00;;;;;;5036370;28;20488;-72
2022/08/15 01:03:50;;;;;;;1.03;0.87;;;23.70;1.00;;;;;;5033120;28;20483;-71
2022/08/15 01:06:19;;;;;;;1.87;0.90;;;23.80;1.00;;;;;;5036614;28;20555;-72
2022/08/15 01:08:47;;;;;;;1.10;0.80;;;23.90;1.00;;;;;;5032696;28;20484;-72
2022/08/15 01:11:20;;;;;;;1.10;0.93;;;24.00;1.00;;;;;;5036072;28;20448;-71
2022/08/15 01:13:49;;;;;;;1.03;0.90;;;24.00;1.00;;;;;;5033551;28;20462;-72
2022/08/15 01:16:16;;;;;;;1.30;1.00;;;23.90;1.00;;;;;;5036177;28;20756;-72
2022/08/15 01:18:44;;;;;;;1.30;0.90;;;23.90;1.00;;;;;;5033130;28;20955;-72
2022/08/15 01:21:20;;;;;;;1.20;0.90;;;23.80;1.00;;;;;;5036158;28;20449;-71
2022/08/15 01:23:56;;;;;;;1.10;1.00;;;23.70;1.00;;;;;;5035986;28;20559;-71
2022/08/15 01:26:26;;;;;;;1.40;1.00;;;23.70;1.00;;;;;;5036058;28;20495;-71
2022/08/15 01:28:55;;;;;;;1.60;1.20;;;23.60;1.00;;;;;;5036368;28;20574;-72
2022/08/15 01:31:26;;;;;;;1.00;0.87;;;23.50;1.00;;;;;;5040099;28;20462;-72
2022/08/15 01:33:56;;;;;;;1.30;0.90;;;23.30;1.00;;;;;;5037798;28;20456;-72
2022/08/15 01:36:26;;;;;;;1.60;1.03;;;23.30;1.00;;;;;;5040225;28;20444;-72
2022/08/15 01:39:00;;;;;;;0.80;0.80;;;23.30;1.00;;;;;;5037287;28;20452;-72
2022/08/15 01:41:36;;;;;;;1.20;0.90;;;23.30;1.00;;;;;;5038658;28;20483;-71
2022/08/15 01:44:12;;;;;;;1.10;0.90;;;23.20;1.00;;;;;;5035297;28;20459;-72
2022/08/15 01:46:43;;;;;;;2.77;0.90;;;23.20;1.00;;;;;;5039220;28;20528;-72
2022/08/15 01:49:18;;;;;;;4.30;0.93;;;23.20;1.00;;;;;;5036069;28;20491;-72
2022/08/15 01:51:45;;;;;;;1.03;0.90;;;23.30;1.00;;;;;;5039604;28;20483;-72
2022/08/15 01:54:15;;;;;;;0.90;0.70;;;23.30;1.00;;;;;;5037536;28;20986;-71
2022/08/15 01:56:46;;;;;;;1.10;0.90;;;23.30;1.00;;;;;;5039416;28;20462;-72
2022/08/15 01:59:16;;;;;;;1.60;0.90;;;23.10;1.00;;;;;;5039782;28;20456;-72
2022/08/15 02:01:46;;;;;;;2.20;0.80;;;23.10;1.00;;;;;;5039681;28;20444;-72
2022/08/15 02:04:15;;;;;;;1.00;0.80;;;23.10;1.00;;;;;;5037614;28;20466;-71
2022/08/15 02:06:43;;;;;;;2.20;0.90;;;23.10;1.00;;;;;;5039395;28;20480;-72
2022/08/15 02:09:12;;;;;;;2.07;0.90;;;23.10;1.00;;;;;;5036428;28;20513;-71
2022/08/15 02:11:40;;;;;;;1.13;0.90;;;23.10;1.00;;;;;;5039411;28;20785;-71
2022/08/15 02:14:11;;;;;;;1.93;0.80;;;23.20;1.00;;;;;;5036862;28;20449;-71
2022/08/15 02:16:40;;;;;;;1.40;0.80;;;23.40;1.00;;;;;;5039284;28;20463;-72
2022/08/15 02:19:08;;;;;;;1.20;0.83;;;23.50;1.00;;;;;;5037074;28;20923;-72
2022/08/15 02:21:36;;;;;;;1.10;0.83;;;23.50;1.00;;;;;;5038606;28;20455;-71
2022/08/15 02:24:05;;;;;;;1.10;0.90;;;23.50;1.00;;;;;;5035661;28;20456;-71
2022/08/15 02:26:32;;;;;;;0.90;0.80;;;23.40;1.00;;;;;;5037888;28;20476;-71
2022/08/15 02:28:59;;;;;;;1.10;0.80;;;23.30;1.00;;;;;;5036936;28;20578;-71
2022/08/15 02:31:30;;;;;;;2.77;0.80;;;23.20;1.00;;;;;;5038980;28;20503;-72
2022/08/15 02:33:59;;;;;;;2.27;0.90;;;23.30;1.00;;;;;;5037400;28;20795;-71
2022/08/15 02:36:28;;;;;;;1.13;0.80;;;23.30;1.00;;;;;;5039129;28;20534;-71
2022/08/15 02:38:58;;;;;;;1.00;0.80;;;23.20;1.00;;;;;;5036950;28;20506;-71
2022/08/15 02:41:32;;;;;;;0.90;0.70;;;23.20;1.00;;;;;;5038630;28;20631;-71
2022/08/15 02:44:01;;;;;;;0.80;0.70;;;23.20;1.00;;;;;;5035593;28;20806;-72
2022/08/15 02:46:30;;;;;;;1.00;0.70;;;23.20;1.00;;;;;;5037623;28;20460;-72
2022/08/15 02:48:58;;;;;;;1.83;0.90;;;23.10;1.00;;;;;;5035479;28;20582;-72
2022/08/15 02:51:27;;;;;;;0.87;0.70;;;23.00;1.00;;;;;;5038532;28;20456;-71
2022/08/15 02:53:55;;;;;;;1.03;0.70;;;23.00;1.00;;;;;;5038979;28;20456;-71
2022/08/15 02:56:24;;;;;;;1.07;0.80;;;22.90;1.00;;;;;;5038664;28;20543;-71
2022/08/15 02:58:52;;;;;;;1.50;0.90;;;23.00;1.00;;;;;;5036748;28;20456;-71
2022/08/15 03:01:22;;;;;;;1.27;0.80;;;23.00;1.00;;;;;;5036674;28;20453;-71
2022/08/15 03:03:53;;;;;;;0.90;0.70;;;22.90;1.00;;;;;;5034808;28;20487;-72
2022/08/15 03:06:24;;;;;;;1.40;0.70;;;23.00;1.00;;;;;;5036981;28;20484;-71
2022/08/15 03:08:51;;;;;;;2.47;0.80;;;23.00;1.00;;;;;;5035601;28;20492;-71
2022/08/15 03:11:19;;;;;;;2.20;0.90;;;22.90;1.00;;;;;;5037359;28;20451;-72
2022/08/15 03:13:45;;;;;;;1.83;0.80;;;22.80;1.00;;;;;;5035754;28;20464;-71
2022/08/15 03:16:15;;;;;;;1.00;0.80;;;22.90;1.00;;;;;;5037968;28;20880;-72
2022/08/15 03:18:42;;;;;;;1.00;0.80;;;23.00;1.00;;;;;;5036319;28;20900;-72
2022/08/15 03:21:13;;;;;;;1.40;0.70;;;23.00;1.00;;;;;;5038038;28;20441;-72
2022/08/15 03:23:48;;;;;;;1.90;0.70;;;22.90;1.00;;;;;;5035362;28;20478;-72
2022/08/15 03:26:17;;;;;;;0.90;0.70;;;22.80;1.00;;;;;;5037868;28;20499;-72
2022/08/15 03:28:44;;;;;;;1.20;0.70;;;22.80;1.00;;;;;;5034363;28;20460;-72
2022/08/15 03:31:11;;;;;;;1.90;0.70;;;22.80;1.00;;;;;;5037440;28;20729;-72
2022/08/15 03:33:39;;;;;;;1.10;0.70;;;22.90;1.00;;;;;;5034505;28;20460;-71
2022/08/15 03:36:08;;;;;;;0.90;0.70;;;22.80;1.00;;;;;;5037441;28;20528;-72
2022/08/15 03:38:36;;;;;;;0.90;0.60;;;22.70;1.00;;;;;;5035536;28;20506;-71
2022/08/15 03:41:08;;;;;;;2.27;0.63;;;22.70;99.90;;;;;;5036919;28;20938;-71
2022/08/15 03:43:37;;;;;;;1.93;0.80;;;22.70;99.90;;;;;;5034495;28;20460;-71
2022/08/15 03:46:07;;;;;;;2.73;0.67;;;22.60;99.90;;;;;;5036325;28;20511;-71
2022/08/15 03:48:40;;;;;;;2.30;0.70;;;22.60;99.90;;;;;;5033729;28;20460;-72
2022/08/15 03:51:09;;;;;;;2.23;0.73;;;22.50;99.90;;;;;;5035152;28;20526;-71
2022/08/15 03:53:43;;;;;;;2.83;0.77;;;22.60;99.90;;;;;;5035253;28;20487;-71
2022/08/15 03:56:11;;;;;;;1.00;0.80;;;22.50;99.90;;;;;;5036378;28;20454;-71
2022/08/15 03:58:38;;;;;;;0.90;0.80;;;22.60;99.90;;;;;;5033453;28;20463;-72
2022/08/15 04:01:09;;;;;;;1.30;0.70;;;22.60;99.90;;;;;;5037017;28;20484;-72
2022/08/15 04:03:36;;;;;;;1.00;0.70;;;22.30;1.00;;;;;;5035080;28;20456;-72
2022/08/15 04:06:06;;;;;;;0.80;0.70;;;22.10;99.90;;;;;;5035828;28;20480;-72
2022/08/15 04:08:34;;;;;;;0.80;0.60;;;22.00;99.90;;;;;;5033465;28;20525;-71
2022/08/15 04:11:04;;;;;;;0.93;0.70;;;22.20;99.90;;;;;;5036275;28;20545;-72
2022/08/15 04:13:31;;;;;;;1.43;0.70;;;22.10;99.90;;;;;;5033610;28;20826;-72
2022/08/15 04:16:02;;;;;;;0.90;0.60;;;22.00;1.00;;;;;;5036214;28;20892;-72
2022/08/15 04:18:29;;;;;;;3.03;0.73;;;21.90;1.00;;;;;;5034488;28;20460;-71
2022/08/15 04:20:59;;;;;;;0.87;0.60;;;21.90;1.00;;;;;;5035551;28;20762;-71
2022/08/15 04:23:27;;;;;;;1.27;0.60;;;21.90;1.00;;;;;;5034007;28;20561;-72
2022/08/15 04:25:55;;;;;;;1.20;0.70;;;21.80;1.00;;;;;;5033960;28;20474;-72
2022/08/15 04:28:26;;;;;;;1.63;0.60;;;21.70;1.00;;;;;;5033820;28;20963;-72
2022/08/15 04:30:53;;;;;;;0.93;0.60;;;21.60;99.90;;;;;;5035911;28;20962;-72
2022/08/15 04:33:23;;;;;;;0.80;0.70;;;21.60;30.30;;;;;;5033284;28;20537;-72
2022/08/15 04:35:52;;;;;;;0.80;0.50;;;21.70;1.00;;;;;;5036242;28;20455;-72
2022/08/15 04:38:20;;;;;;;0.97;0.50;;;21.80;1.00;;;;;;5033206;28;20452;-72
2022/08/15 04:40:48;;;;;;;0.83;0.57;;;21.80;99.90;;;;;;5036527;28;20445;-72
2022/08/15 04:43:16;;;;;;;0.70;0.50;;;21.90;1.00;;;;;;5032856;28;20989;-71
2022/08/15 04:45:45;;;;;;;0.70;0.40;;;21.80;1.00;;;;;;5036415;28;20506;-71
2022/08/15 04:48:14;;;;;;;0.70;0.50;;;21.70;1.00;;;;;;5034018;28;20456;-71
2022/08/15 04:50:42;;;;;;;1.40;0.60;;;21.80;1.00;;;;;;5036118;28;20499;-72
2022/08/15 04:53:11;;;;;;;0.60;0.43;;;21.70;1.00;;;;;;5033670;28;20867;-71
2022/08/15 04:55:41;;;;;;;0.97;0.73;;;21.80;1.00;;;;;;5035553;28;20452;-71
2022/08/15 04:58:09;;;;;;;0.93;0.60;;;21.80;1.00;;;;;;5034397;28;20460;-71
2022/08/15 05:00:37;;;;;;;0.80;0.60;;;21.70;1.00;;;;;;5035859;28;20535;-71
2022/08/15 05:03:08;;;;;;;1.40;0.50;;;21.70;1.00;;;;;;5033328;28;20815;-71
2022/08/15 05:05:37;;;;;;;2.33;0.60;;;21.70;1.00;;;;;;5035810;28;20449;-71
2022/08/15 05:08:04;;;;;;;1.00;0.57;;;21.70;1.00;;;;;;5033738;28;20543;-72
2022/08/15 05:10:32;;;;;;;0.70;0.50;;;21.60;1.00;;;;;;5035971;28;20484;-71
2022/08/15 05:13:08;;;;;;;0.80;0.60;;;21.60;1.00;;;;;;5031578;28;20978;-72
2022/08/15 05:15:35;;;;;;;0.80;0.50;;;21.60;1.00;;;;;;5035821;28;20450;-72
2022/08/15 05:18:02;;;;;;;0.87;0.53;;;21.70;1.00;;;;;;5034257;28;20550;-71
2022/08/15 05:20:31;;;;;;;0.70;0.50;;;21.70;1.00;;;;;;5035744;28;20737;-71
2022/08/15 05:23:00;;;;;;;0.80;0.57;;;21.60;1.00;;;;;;5032081;28;20495;-72
2022/08/15 05:25:27;;;;;;;0.90;0.50;;;21.50;19.50;;;;;;5035456;28;20480;-71
2022/08/15 05:27:54;;;;;;;0.70;0.50;;;21.50;1.00;;;;;;5032779;28;20500;-72
2022/08/15 05:30:23;;;;;;;0.87;0.40;;;21.40;99.90;;;;;;5034011;28;20490;-73
2022/08/15 05:33:00;;;;;;;0.80;0.40;;;21.30;1.00;;;;;;5030796;28;20752;-71
2022/08/15 05:35:29;;;;;;;0.70;0.60;;;21.30;1.00;;;;;;5034590;28;20452;-71
2022/08/15 05:38:01;;;;;;;0.80;0.50;;;21.50;99.90;;;;;;5033742;28;20951;-71
2022/08/15 05:40:34;;;;;;;0.70;0.40;;;21.50;99.90;;;;;;5035364;28;20526;-72
2022/08/15 05:43:09;;;;;;;0.93;0.57;;;21.50;1.00;;;;;;5032662;28;20460;-71
2022/08/15 05:45:41;;;;;;;1.90;0.50;;;21.40;99.90;;;;;;5035540;28;20458;-72
2022/08/15 05:48:14;;;;;;;1.00;0.50;;;21.40;1.00;;;;;;5031446;28;20558;-73
2022/08/15 05:50:50;;;;;;;0.80;0.53;;;21.30;43.70;;;;;;5047019;28;20483;-72
2022/08/15 05:53:28;;;;;;;0.70;0.40;;;21.30;99.90;;;;;;5050891;28;20446;-72
2022/08/15 05:56:01;;;;;;;0.70;0.50;;;21.20;1.00;;;;;;5052849;28;20447;-72
2022/08/15 05:58:38;;;;;;;2.03;1.10;;;21.10;23.00;;;;;;5045001;28;20475;-71
2022/08/15 06:01:09;;;;;;;16.73;13.83;;;21.10;1.00;;;;;;5033617;28;20467;-71
2022/08/15 06:03:39;;;;;;;1.27;0.67;;;21.40;17.20;;;;;;5031405;28;20535;-71
2022/08/15 06:06:11;;;;;;;0.67;0.40;;;21.50;99.90;;;;;;5039133;28;20491;-71
2022/08/15 06:08:46;;;;;;;0.70;0.60;;;21.50;99.90;;;;;;5056188;28;20546;-71
2022/08/15 06:11:18;;;;;;;0.70;0.57;;;21.50;1.00;;;;;;5067092;28;21015;-72
2022/08/15 06:13:55;;;;;;;0.70;0.43;;;21.40;1.00;;;;;;5051539;28;20955;-72
2022/08/15 06:16:26;;;;;;;0.70;0.50;;;21.30;99.90;;;;;;5072421;28;20466;-71
2022/08/15 06:18:55;;;;;;;0.80;0.40;;;21.20;99.90;;;;;;5055975;28;20545;-72
2022/08/15 06:21:30;;;;;;;0.90;0.50;;;21.20;1.00;;;;;;5074641;28;20445;-72
2022/08/15 06:24:07;;;;;;;1.17;0.50;;;21.10;1.00;;;;;;5056783;28;20439;-72
2022/08/15 06:26:43;;;;;;;1.37;0.50;;;21.20;1.00;;;;;;5074117;28;20442;-72
2022/08/15 06:29:38;;;;;;;1.00;0.50;;;21.30;1.00;;;;;;5056102;28;20921;-71
2022/08/15 06:32:07;;;;;;;0.80;0.50;;;21.40;99.90;;;;;;5033195;28;20824;-72
2022/08/15 06:34:40;;;;;;;0.70;0.50;;;21.60;1.00;;;;;;5046563;28;20447;-73
2022/08/15 06:37:16;;;;;;;0.60;0.40;;;21.80;99.90;;;;;;5043060;28;20460;-72
2022/08/15 06:39:51;;;;;;;0.63;0.50;;;22.10;99.90;;;;;;5046995;28;20486;-71
2022/08/15 06:42:26;;;;;;;0.60;0.40;;;22.20;1.00;;;;;;5070442;28;21425;-72
2022/08/15 06:44:58;;;;;;;2.70;0.47;;;22.10;1.00;;;;;;5057166;28;20747;-70
2022/08/15 06:47:28;;;;;;;0.80;0.50;;;22.20;1.00;;;;;;5070035;28;20462;-71
2022/08/15 06:50:03;;;;;;;0.70;0.50;;;22.20;1.00;;;;;;5057244;28;20440;-73
2022/08/15 06:52:30;;;;;;;0.70;0.43;;;22.20;1.00;;;;;;5066923;28;20447;-73
2022/08/15 06:54:59;;;;;;;0.73;0.40;;;22.10;99.90;;;;;;5048992;28;20485;-72
2022/08/15 06:57:37;;;;;;;0.97;0.50;;;22.10;99.90;;;;;;5038438;28;20445;-72
2022/08/15 07:00:09;;;;;;;1.97;0.50;;;22.10;99.90;;;;;;5047590;28;20526;-73
2022/08/15 07:02:49;;;;;;;0.60;0.47;;;22.20;99.90;;;;;;5039479;28;20454;-72
2022/08/15 07:05:22;;;;;;;0.60;0.40;;;22.30;99.90;;;;;;5058401;28;20459;-71
2022/08/15 07:08:00;;;;;;;1.00;0.53;;;22.40;99.90;;;;;;5070851;28;20462;-70
2022/08/15 07:10:35;;;;;;;0.60;0.47;;;22.50;91.50;;;;;;5054107;28;20489;-72
2022/08/15 07:13:05;;;;;;;0.80;0.50;;;22.20;99.90;;;;;;5069395;28;20570;-72
2022/08/15 07:15:45;;;;;;;1.40;0.47;;;22.10;99.90;;;;;;5045624;28;20550;-72
2022/08/15 07:18:19;;;;;;;0.50;0.33;;;22.20;99.90;;;;;;5057175;28;20951;-72
2022/08/15 07:20:46;;;;;;;0.70;0.50;;;22.30;99.90;;;;;;5057335;28;20460;-71
2022/08/15 07:23:22;;;;;;;1.50;0.50;;;22.40;99.90;;;;;;5070175;28;20474;-72
2022/08/15 07:25:53;;;;;;;0.70;0.50;;;22.40;90.10;;;;;;5043399;28;20486;-72
2022/08/15 07:28:30;;;;;;;0.60;0.50;;;22.40;82.10;;;;;;5040014;28;20493;-72
2022/08/15 07:31:06;;;;;;;0.60;0.40;;;22.50;57.10;;;;;;5036902;28;20549;-72
2022/08/15 07:33:37;;;;;;;1.20;0.80;;;22.60;1.00;;;;;;5039573;28;20485;-71
2022/08/15 07:36:08;;;;;;;0.90;0.50;;;22.80;1.00;;;;;;5053718;28;20472;-72
2022/08/15 07:38:36;;;;;;;0.80;0.50;;;23.00;1.00;;;;;;5041633;28;20792;-72
2022/08/15 07:41:27;;;;;;;1.00;0.50;;;23.30;1.00;;;;;;5054828;28;20462;-73
2022/08/15 07:43:59;;;;;;;0.60;0.47;;;23.30;1.00;;;;;;5061241;28;20601;-72
2022/08/15 07:46:37;;;;;;;0.90;0.40;;;23.30;1.00;;;;;;5039619;28;20464;-72
2022/08/15 07:49:16;;;;;;;0.60;0.40;;;23.20;1.00;;;;;;5069946;28;20452;-72
2022/08/15 07:51:47;;;;;;;0.60;0.40;;;23.50;1.00;;;;;;5057705;28;20478;-72
2022/08/15 07:54:27;;;;;;;1.07;0.50;;;23.70;1.00;;;;;;5048971;28;20467;-72
2022/08/15 07:56:58;;;;;;;0.67;0.40;;;23.70;1.00;;;;;;5059551;28;20911;-72
2022/08/15 07:59:28;;;;;;;0.50;0.40;;;23.70;1.00;;;;;;5053968;28;20440;-72
2022/08/15 08:02:10;;;;;;;1.40;0.50;;;23.90;1.00;;;;;;5044047;28;20894;-72
2022/08/15 08:04:38;;;;;;;0.70;0.40;;;23.90;1.00;;;;;;5043791;28;20502;-72
2022/08/15 08:07:15;;;;;;;0.53;0.40;;;23.70;1.00;;;;;;5062427;28;20498;-72
2022/08/15 08:09:45;;;;;;;0.90;0.50;;;23.70;1.00;;;;;;5044235;28;20542;-73
2022/08/15 08:12:39;;;;;;;0.63;0.40;;;23.70;1.00;;;;;;5055655;28;20654;-72
2022/08/15 08:15:18;;;;;;;1.23;0.50;;;23.50;1.00;;;;;;5046717;28;20956;-72
2022/08/15 08:17:47;;;;;;;0.47;0.30;;;23.50;1.00;;;;;;5057555;28;20533;-73
2022/08/15 08:20:21;;;;;;;0.90;0.40;;;23.40;1.00;;;;;;5052466;28;20452;-71
2022/08/15 08:22:55;;;;;;;0.90;0.50;;;23.60;1.00;;;;;;5055127;28;20451;-71
2022/08/15 08:25:27;;;;;;;0.57;0.40;;;24.10;1.00;;;;;;5045024;28;20463;-73
2022/08/15 08:28:04;;;;;;;0.90;0.53;;;24.50;1.00;;;;;;5053616;28;20479;-73
2022/08/15 08:30:37;;;;;;;0.60;0.40;;;24.60;1.00;;;;;;5060558;28;20488;-72
2022/08/15 08:33:16;;;;;;;0.70;0.43;;;24.60;1.00;;;;;;5060631;28;20887;-72
2022/08/15 08:35:47;;;;;;;0.70;0.40;;;24.50;1.00;;;;;;5060702;28;20964;-72
2022/08/15 08:38:26;;;;;;;1.03;0.50;;;24.70;1.00;;;;;;5053944;28;20480;-72
2022/08/15 08:44:00;;;;;;;0.80;0.47;;;24.80;1.00;;;;;;5048297;28;20506;-73
2022/08/15 08:46:56;;;;;;;0.53;0.40;;;24.80;1.00;;;;;;5063529;28;20450;-74
2022/08/15 08:49:30;;;;;;;0.73;0.40;;;25.00;1.00;;;;;;5050392;28;20523;-74
2022/08/15 08:52:09;;;;;;;1.30;0.70;;;25.00;1.00;;;;;;5065377;28;20577;-72
2022/08/15 08:54:53;;;;;;;0.50;0.40;;;25.20;1.00;;;;;;5046641;28;20246;-71
2022/08/15 08:57:24;;;;;;;0.40;0.40;;;25.40;1.00;;;;;;5036606;28;20457;-73
2022/08/15 09:00:04;;;;;;;1.10;0.60;;;25.60;1.00;;;;;;5043012;28;20447;-72
2022/08/15 09:02:36;;;;;;;0.50;0.40;;;25.70;1.00;;;;;;5050025;28;20450;-73
2022/08/15 09:05:10;;;;;;;0.50;0.30;;;25.80;1.00;;;;;;5054805;28;20474;-72
2022/08/15 09:07:42;;;;;;;1.20;0.47;;;25.80;1.00;;;;;;5040069;28;20507;-72
2022/08/15 09:10:11;;;;;;;0.70;0.50;;;26.00;1.00;;;;;;5048208;28;20532;-73
2022/08/15 09:15:33;;;;;;;0.60;0.40;;;25.90;1.00;;;;;;5046803;28;20432;-74
2022/08/15 09:18:04;;;;;;;0.80;0.40;;;25.90;1.00;;;;;;5055514;28;20462;-72
2022/08/15 09:20:34;;;;;;;1.73;0.40;;;25.80;1.00;;;;;;5049691;28;20445;-73
2022/08/15 09:23:02;;;;;;;0.53;0.40;;;25.80;1.00;;;;;;5041610;28;20455;-73
2022/08/15 09:25:34;;;;;;;0.60;0.40;;;25.60;1.00;;;;;;5047024;28;20543;-73
2022/08/15 09:28:09;;;;;;;1.33;0.40;;;25.40;1.00;;;;;;5061741;28;20451;-73
2022/08/15 09:30:40;;;;;;;0.73;0.40;;;25.40;1.00;;;;;;5035971;28;20480;-74
2022/08/15 09:33:26;;;;;;;2.30;0.40;;;25.50;1.00;;;;;;5058333;28;20448;-74
2022/08/15 09:36:41;;;;;;;0.60;0.40;;;25.80;1.00;;;;;;5045431;28;20821;-73
2022/08/15 09:39:27;;;;;;;0.67;0.40;;;25.90;1.00;;;;;;4984759;28;20456;-73
2022/08/15 09:42:13;;;;;;;8.63;5.33;;;26.10;1.00;;;;;;5046099;28;20435;-73
2022/08/15 09:45:04;;;;;;;0.90;0.70;;;26.50;1.00;;;;;;5039377;28;20466;-72
2022/08/15 09:48:03;;;;;;;0.70;0.50;;;26.60;1.00;;;;;;5040613;28;20751;-73
2022/08/15 09:50:43;;;;;;;0.60;0.40;;;26.70;1.00;;;;;;5037056;28;20555;-73
2022/08/15 09:53:29;;;;;;;0.57;0.40;;;26.70;1.00;;;;;;5039248;28;20456;-74
2022/08/15 09:56:03;;;;;;;2.50;0.70;;;26.70;1.00;;;;;;5036989;28;20922;-73
2022/08/15 09:58:36;;;;;;;0.90;0.50;;;26.90;1.00;;;;;;5066069;28;20450;-74
2022/08/15 10:01:09;;;;;;;0.53;0.40;;;27.10;1.00;;;;;;5036085;28;20549;-73
2022/08/15 10:03:59;;;;;;;2.13;0.40;;;27.10;1.00;;;;;;5032436;28;20541;-71
2022/08/15 10:06:29;;;;;;;4.73;0.50;;;27.20;1.00;;;;;;5035801;28;20564;-72
2022/08/15 10:09:18;;;;;;;1.17;0.90;;;27.50;1.00;;;;;;5034763;28;20563;-72
2022/08/15 10:12:06;;;;;;;1.00;0.67;;;27.50;1.00;;;;;;5043025;28;20506;-73
2022/08/15 10:14:49;;;;;;;0.80;0.50;;;27.50;1.00;;;;;;5054601;28;20459;-73
2022/08/15 10:17:42;;;;;;;0.60;0.40;;;27.70;1.00;;;;;;5045094;28;20536;-72
2022/08/15 10:20:48;;;;;;;0.70;0.40;;;27.80;1.00;;;;;;5053413;28;20767;-73
2022/08/15 10:23:45;;;;;;;0.50;0.40;;;28.10;1.00;;;;;;5042769;28;20455;-73
2022/08/15 10:26:28;;;;;;;0.70;0.40;;;27.90;1.00;;;;;;5036873;28;20465;-72
2022/08/15 10:29:01;;;;;;;0.77;0.50;;;28.30;1.00;;;;;;5054339;28;20950;-72
2022/08/15 10:31:36;;;;;;;0.80;0.50;;;28.50;1.00;;;;;;5038374;28;20484;-74
2022/08/15 10:34:04;;;;;;;0.70;0.40;;;28.30;1.00;;;;;;5041272;28;20889;-72
2022/08/15 10:36:36;;;;;;;0.53;0.40;;;28.30;1.00;;;;;;5045047;28;20447;-74
2022/08/15 10:39:33;;;;;;;0.60;0.50;;;28.40;1.00;;;;;;5038765;28;20444;-74
2022/08/15 10:42:14;;;;;;;0.90;0.50;;;28.60;1.00;;;;;;5043337;28;20875;-74
2022/08/15 10:44:52;;;;;;;0.70;0.57;;;28.30;1.00;;;;;;5040163;28;20451;-74
2022/08/15 10:47:37;;;;;;;0.70;0.50;;;28.50;1.00;;;;;;5054840;28;20439;-74
2022/08/15 10:50:16;;;;;;;1.53;0.57;;;28.80;1.00;;;;;;5043101;28;20459;-72
2022/08/15 10:52:58;;;;;;;0.93;0.57;;;29.20;1.00;;;;;;5036101;28;20503;-73
2022/08/15 10:55:31;;;;;;;0.60;0.50;;;29.40;1.00;;;;;;5040560;28;20462;-73
2022/08/15 10:58:10;;;;;;;0.90;0.50;;;29.30;1.00;;;;;;5039288;28;20958;-74
2022/08/15 11:00:51;;;;;;;0.70;0.50;;;29.90;1.00;;;;;;5033590;28;20566;-73
2022/08/15 11:03:23;;;;;;;0.70;0.50;;;30.50;1.00;;;;;;5046635;28;20498;-74
2022/08/15 11:06:02;;;;;;;0.57;0.40;;;30.10;1.00;;;;;;5047292;28;20583;-74
2022/08/15 11:08:33;;;;;;;0.80;0.50;;;29.90;1.00;;;;;;5040025;28;20516;-73
2022/08/15 11:11:07;;;;;;;1.80;0.50;;;29.30;1.00;;;;;;5018115;28;20452;-75
2022/08/15 11:13:36;;;;;;;1.47;0.50;;;28.60;1.00;;;;;;5033291;28;20448;-74
2022/08/15 11:16:12;;;;;;;1.27;0.40;;;28.40;1.00;;;;;;5047523;28;20446;-74
2022/08/15 11:18:48;;;;;;;1.10;0.50;;;28.40;1.00;;;;;;5033006;28;20555;-74
2022/08/15 11:21:23;;;;;;;0.70;0.40;;;28.30;1.00;;;;;;5036406;28;20452;-73
2022/08/15 11:23:55;;;;;;;0.70;0.60;;;28.30;1.00;;;;;;5030341;28;20930;-74
2022/08/15 11:26:27;;;;;;;0.70;0.50;;;28.30;1.00;;;;;;5036559;28;20506;-74
2022/08/15 11:29:14;;;;;;;0.60;0.40;;;28.70;1.00;;;;;;5048702;28;20468;-74
2022/08/15 11:31:59;;;;;;;0.90;0.50;;;29.30;1.00;;;;;;5055033;28;20491;-73
2022/08/15 11:34:28;;;;;;;1.13;0.50;;;29.60;1.00;;;;;;5014758;28;20550;-75
2022/08/15 11:36:59;;;;;;;0.67;0.40;;;29.80;1.00;;;;;;5035297;28;20963;-74
2022/08/15 11:39:29;;;;;;;0.80;0.40;;;30.00;99.90;;;;;;5031818;28;20918;-75
2022/08/15 11:42:03;;;;;;;0.60;0.40;;;30.20;99.90;;;;;;5036097;28;20460;-75
2022/08/15 11:44:39;;;;;;;0.60;0.40;;;30.40;99.90;;;;;;5034106;28;20460;-74
2022/08/15 11:47:06;;;;;;;0.50;0.40;;;30.60;1.00;;;;;;5035813;28;20487;-74
2022/08/15 11:49:36;;;;;;;0.60;0.40;;;30.20;99.90;;;;;;5034060;28;20506;-73
2022/08/15 11:52:09;;;;;;;0.50;0.40;;;30.00;99.90;;;;;;5018513;28;20476;-75
2022/08/15 11:54:36;;;;;;;0.70;0.60;;;29.50;99.90;;;;;;5031797;28;20550;-73
2022/08/15 11:57:10;;;;;;;0.60;0.33;;;29.10;99.90;;;;;;5033613;28;20444;-73
2022/08/15 11:59:40;;;;;;;0.70;0.50;;;29.00;99.90;;;;;;5032249;28;20547;-73
2022/08/15 12:02:34;;;;;;;0.50;0.40;;;29.00;99.90;;;;;;5034560;28;20577;-73
2022/08/15 12:05:12;;;;;;;0.60;0.40;;;28.90;99.90;;;;;;5035677;28;20466;-72
2022/08/15 12:07:44;;;;;;;0.57;0.40;;;29.30;99.90;;;;;;5034246;28;20476;-72
2022/08/15 12:10:25;;;;;;;0.53;0.40;;;29.40;99.90;;;;;;5033071;28;20883;-72
2022/08/15 12:12:54;;;;;;;0.53;0.47;;;29.70;99.90;;;;;;5033164;28;20516;-72
2022/08/15 12:15:23;;;;;;;1.20;0.50;;;30.00;99.90;;;;;;5042762;28;20444;-72
2022/08/15 12:18:06;;;;;;;0.60;0.40;;;30.50;99.90;;;;;;5046752;28;20478;-73
2022/08/15 12:20:41;;;;;;;0.73;0.50;;;30.70;99.90;;;;;;5046102;28;20545;-72
2022/08/15 12:23:36;;;;;;;0.60;0.50;;;30.60;99.90;;;;;;5043064;28;20471;-73
2022/08/15 12:26:05;;;;;;;1.07;0.50;;;30.70;99.90;;;;;;5044656;28;20520;-72
2022/08/15 12:28:35;;;;;;;1.57;0.40;;;31.00;99.90;;;;;;5046979;28;20529;-71
2022/08/15 12:31:06;;;;;;;0.60;0.50;;;31.60;99.90;;;;;;5044138;28;20448;-71
2022/08/15 12:33:33;;;;;;;0.70;0.53;;;31.60;99.90;;;;;;5052154;28;20803;-71
2022/08/15 12:36:02;;;;;;;1.43;0.50;;;31.60;99.90;;;;;;5053805;28;20587;-71
2022/08/15 12:38:29;;;;;;;0.70;0.50;;;31.50;99.90;;;;;;5050640;28;20443;-71
2022/08/15 12:40:56;;;;;;;1.07;0.60;;;31.70;99.90;;;;;;5054530;28;20447;-71
2022/08/15 12:43:23;;;;;;;1.37;0.93;;;31.40;99.90;;;;;;5051728;28;20451;-70
2022/08/15 12:45:51;;;;;;;0.60;0.40;;;31.40;99.90;;;;;;5053703;28;20534;-71
2022/08/15 12:48:22;;;;;;;0.60;0.40;;;31.00;99.90;;;;;;5049030;28;20455;-72
2022/08/15 12:50:51;;;;;;;0.70;0.60;;;30.50;99.90;;;;;;5050237;28;20936;-71
2022/08/15 12:53:18;;;;;;;1.00;0.50;;;29.90;99.90;;;;;;5051484;28;20479;-71
2022/08/15 12:55:47;;;;;;;0.60;0.43;;;29.70;99.90;;;;;;5052880;28;20516;-71
2022/08/15 12:58:17;;;;;;;0.90;0.60;;;29.50;99.90;;;;;;5052205;28;20950;-71
2022/08/15 13:00:45;;;;;;;8.30;0.60;;;29.30;99.90;;;;;;5033297;28;20444;-72
2022/08/15 13:03:19;;;;;;;1.43;0.50;;;29.20;99.90;;;;;;5033258;28;20536;-71
2022/08/15 13:05:48;;;;;;;0.93;0.50;;;28.90;99.90;;;;;;5033381;28;20479;-71
2022/08/15 13:08:15;;;;;;;0.60;0.50;;;28.70;99.90;;;;;;5034397;28;20448;-71
2022/08/15 13:10:42;;;;;;;0.70;0.50;;;28.50;99.90;;;;;;5031509;28;20822;-72
2022/08/15 13:13:09;;;;;;;0.73;0.50;;;28.40;99.90;;;;;;5033191;28;20852;-72
2022/08/15 13:15:37;;;;;;;0.70;0.60;;;28.50;99.90;;;;;;5031874;28;20456;-72
2022/08/15 13:18:04;;;;;;;0.90;0.50;;;28.30;99.90;;;;;;5033555;28;20553;-72
2022/08/15 13:23:40;;;;;;;0.70;0.40;;;28.40;99.90;;;;;;5035563;28;20439;-72
2022/08/15 13:26:12;;;;;;;0.80;0.60;;;28.50;99.90;;;;;;5038783;28;20780;-72
2022/08/15 13:28:41;;;;;;;1.10;0.50;;;28.60;99.90;;;;;;5044666;28;20522;-72
2022/08/15 13:31:09;;;;;;;0.60;0.50;;;28.70;99.90;;;;;;5044776;28;20530;-72
2022/08/15 13:33:37;;;;;;;1.00;0.60;;;28.90;99.90;;;;;;5040143;28;20504;-72
2022/08/15 13:36:09;;;;;;;0.60;0.50;;;29.00;99.90;;;;;;5039302;28;20844;-71